createdAt,value
2019-03-04T00:00:01.703Z,1.82
2019-03-04T00:01:10.434Z,1.84
2019-03-04T00:02:15.231Z,1.86
2019-03-04T00:03:19.582Z,1.88
2019-03-04T00:04:23.934Z,1.89
2019-03-04T00:05:28.162Z,1.83
2019-03-04T00:06:32.481Z,1.92
2019-03-04T00:07:36.780Z,1.95
2019-03-04T00:08:41.181Z,1.95
2019-03-04T00:09:45.595Z,1.96
2019-03-04T00:10:49.978Z,1.97
2019-03-04T00:11:54.430Z,1.98
2019-03-04T00:12:58.807Z,1.98
2019-03-04T00:14:03.080Z,1.95
2019-03-04T00:15:07.530Z,1.94
2019-03-04T00:16:11.833Z,1.97
2019-03-04T00:17:16.160Z,1.96
2019-03-04T00:18:20.622Z,1.98
2019-03-04T00:19:24.951Z,1.97
2019-03-04T00:20:29.278Z,1.98
2019-03-04T00:21:33.598Z,1.99
2019-03-04T00:22:38.022Z,1.98
2019-03-04T00:23:42.493Z,1.90
2019-03-04T00:24:46.686Z,1.80
2019-03-04T00:25:51.897Z,1.75
2019-03-04T00:26:55.544Z,1.70
2019-03-04T00:28:00.084Z,1.74
2019-03-04T00:29:04.340Z,1.76
2019-03-04T00:30:09.054Z,1.78
2019-03-04T00:31:13.322Z,1.77
2019-03-04T00:32:17.681Z,1.63
2019-03-04T00:33:21.980Z,1.66
2019-03-04T00:34:26.229Z,1.68
2019-03-04T00:35:30.420Z,1.69
2019-03-04T00:36:34.814Z,1.73
2019-03-04T00:37:39.267Z,1.75
2019-03-04T00:38:43.595Z,1.73
2019-03-04T00:39:47.976Z,1.71
2019-03-04T00:40:52.324Z,1.72
2019-03-04T00:41:56.622Z,1.71
2019-03-04T00:43:01.005Z,1.71
2019-03-04T00:44:05.408Z,1.61
2019-03-04T00:45:09.870Z,1.60
2019-03-04T00:46:14.218Z,1.57
2019-03-04T00:47:18.622Z,1.53
2019-03-04T00:48:22.846Z,1.53
2019-03-04T00:49:27.200Z,1.56
2019-03-04T00:50:31.429Z,1.55
2019-03-04T00:51:35.729Z,1.53
2019-03-04T00:52:39.840Z,1.57
2019-03-04T00:53:43.971Z,1.58
2019-03-04T00:54:48.493Z,1.61
2019-03-04T00:55:52.728Z,1.59
2019-03-04T00:56:56.977Z,1.62
2019-03-04T00:58:01.284Z,1.61
2019-03-04T00:59:05.631Z,1.60
2019-03-04T01:00:13.806Z,1.61
2019-03-04T01:01:18.110Z,1.64
2019-03-04T01:02:22.453Z,1.67
2019-03-04T01:03:26.792Z,1.67
2019-03-04T01:04:31.074Z,1.68
2019-03-04T01:05:35.315Z,1.64
2019-03-04T01:06:39.549Z,1.62
2019-03-04T01:07:43.950Z,1.64
2019-03-04T01:08:48.009Z,1.59
2019-03-04T01:09:52.185Z,1.58
2019-03-04T01:10:56.202Z,1.54
2019-03-04T01:12:00.250Z,1.56
2019-03-04T01:13:04.314Z,1.51
2019-03-04T01:14:08.338Z,1.50
2019-03-04T01:15:14.724Z,1.49
2019-03-04T01:16:18.748Z,1.49
2019-03-04T01:17:22.893Z,1.56
2019-03-04T01:18:27.000Z,1.58
2019-03-04T01:19:31.137Z,1.54
2019-03-04T01:20:35.312Z,1.57
2019-03-04T01:21:39.484Z,1.56
2019-03-04T01:22:43.522Z,1.54
2019-03-04T01:23:47.572Z,1.60
2019-03-04T01:24:51.574Z,1.63
2019-03-04T01:25:55.985Z,1.61
2019-03-04T01:27:00.393Z,1.64
2019-03-04T01:28:04.777Z,1.58
2019-03-04T01:29:08.730Z,1.60
2019-03-04T01:30:19.664Z,1.54
2019-03-04T01:31:24.106Z,1.51
2019-03-04T01:32:28.254Z,1.53
2019-03-04T01:33:32.715Z,1.44
2019-03-04T01:34:37.066Z,1.53
2019-03-04T01:35:41.411Z,1.55
2019-03-04T01:36:45.745Z,1.57
2019-03-04T01:37:50.048Z,1.58
2019-03-04T01:38:54.423Z,1.61
2019-03-04T01:39:58.918Z,1.61
2019-03-04T01:41:03.263Z,1.60
2019-03-04T01:42:07.724Z,1.59
2019-03-04T01:43:12.188Z,1.59
2019-03-04T01:44:16.558Z,1.58
2019-03-04T01:45:21.004Z,1.59
2019-03-04T01:46:25.476Z,1.60
2019-03-04T01:47:29.850Z,1.62
2019-03-04T01:48:34.140Z,1.64
2019-03-04T01:49:38.613Z,1.66
2019-03-04T01:50:42.942Z,1.65
2019-03-04T01:51:47.315Z,1.63
2019-03-04T01:52:51.844Z,1.56
2019-03-04T01:53:56.164Z,1.53
2019-03-04T01:55:00.487Z,1.47
2019-03-04T01:56:04.765Z,1.40
2019-03-04T01:57:09.034Z,1.43
2019-03-04T01:58:13.478Z,1.43
2019-03-04T01:59:17.805Z,1.41
2019-03-04T02:00:22.302Z,1.46
2019-03-04T02:01:26.631Z,1.48
2019-03-04T02:02:30.809Z,1.51
2019-03-04T02:03:35.321Z,1.50
2019-03-04T02:04:39.629Z,1.53
2019-03-04T02:05:43.987Z,1.46
2019-03-04T02:06:54.846Z,1.35
2019-03-04T02:07:59.340Z,1.37
2019-03-04T02:09:04.403Z,1.23
2019-03-04T02:10:10.826Z,1.23
2019-03-04T02:11:15.159Z,1.16
2019-03-04T02:12:19.586Z,1.10
2019-03-04T02:13:23.997Z,1.01
2019-03-04T02:14:28.391Z,1.07
2019-03-04T02:15:32.844Z,1.05
2019-03-04T02:16:36.921Z,1.01
2019-03-04T02:17:41.299Z,1.05
2019-03-04T02:18:45.618Z,1.08
2019-03-04T02:19:49.851Z,1.10
2019-03-04T02:20:54.119Z,1.11
2019-03-04T02:21:58.409Z,1.13
2019-03-04T02:23:02.914Z,1.15
2019-03-04T02:24:18.427Z,1.12
2019-03-04T02:25:28.461Z,1.16
2019-03-04T02:26:33.077Z,1.19
2019-03-04T02:27:37.461Z,1.19
2019-03-04T02:28:41.749Z,1.06
2019-03-04T02:29:46.099Z,1.10
2019-03-04T02:30:50.405Z,1.11
2019-03-04T02:31:54.713Z,1.04
2019-03-04T02:32:58.933Z,1.01
2019-03-04T02:34:03.320Z,1.00
2019-03-04T02:35:07.661Z,1.03
2019-03-04T02:36:12.101Z,1.01
2019-03-04T02:37:16.474Z,0.97
2019-03-04T02:38:20.758Z,0.97
2019-03-04T02:39:25.181Z,0.98
2019-03-04T02:40:29.488Z,0.96
2019-03-04T02:41:34.099Z,0.96
2019-03-04T02:42:38.383Z,1.02
2019-03-04T02:43:42.689Z,1.02
2019-03-04T02:44:46.981Z,1.04
2019-03-04T02:45:51.395Z,1.08
2019-03-04T02:46:55.871Z,1.04
2019-03-04T02:48:00.259Z,0.96
2019-03-04T02:49:04.546Z,0.89
2019-03-04T02:50:09.050Z,0.86
2019-03-04T02:51:13.345Z,0.79
2019-03-04T02:52:17.723Z,0.83
2019-03-04T02:53:22.017Z,0.87
2019-03-04T02:54:26.598Z,0.86
2019-03-04T02:55:30.726Z,0.87
2019-03-04T02:56:35.230Z,0.89
2019-03-04T02:57:39.790Z,0.91
2019-03-04T02:58:44.186Z,0.95
2019-03-04T02:59:48.480Z,0.97
2019-03-04T03:00:52.814Z,1.00
2019-03-04T03:01:57.211Z,1.05
2019-03-04T03:03:01.735Z,1.06
2019-03-04T03:04:06.102Z,1.06
2019-03-04T03:05:10.521Z,1.09
2019-03-04T03:06:14.799Z,1.12
2019-03-04T03:07:19.170Z,1.14
2019-03-04T03:08:23.616Z,1.17
2019-03-04T03:09:28.077Z,1.20
2019-03-04T03:10:32.412Z,1.23
2019-03-04T03:11:36.811Z,1.28
2019-03-04T03:12:41.192Z,1.30
2019-03-04T03:13:45.538Z,1.33
2019-03-04T03:14:49.887Z,1.35
2019-03-04T03:15:54.363Z,1.39
2019-03-04T03:16:58.671Z,1.40
2019-03-04T03:18:03.113Z,1.44
2019-03-04T03:19:07.466Z,1.47
2019-03-04T03:20:12.075Z,1.49
2019-03-04T03:21:16.362Z,1.52
2019-03-04T03:22:20.786Z,1.55
2019-03-04T03:23:25.211Z,1.58
2019-03-04T03:24:29.662Z,1.61
2019-03-04T03:25:33.974Z,1.63
2019-03-04T03:26:38.506Z,1.65
2019-03-04T03:27:42.856Z,1.67
2019-03-04T03:28:47.222Z,1.71
2019-03-04T03:29:52.156Z,1.67
2019-03-04T03:30:56.212Z,1.74
2019-03-04T03:32:00.574Z,1.74
2019-03-04T03:33:04.891Z,1.77
2019-03-04T03:34:09.313Z,1.79
2019-03-04T03:35:13.776Z,1.80
2019-03-04T03:36:18.031Z,1.82
2019-03-04T03:37:22.397Z,1.83
2019-03-04T03:38:26.738Z,1.84
2019-03-04T03:39:31.012Z,1.86
2019-03-04T03:40:35.062Z,1.87
2019-03-04T03:41:39.321Z,1.90
2019-03-04T03:42:43.663Z,1.89
2019-03-04T03:43:47.939Z,1.90
2019-03-04T03:44:52.285Z,1.91
2019-03-04T03:45:56.634Z,1.93
2019-03-04T03:47:00.785Z,1.94
2019-03-04T03:48:05.116Z,1.95
2019-03-04T03:49:09.476Z,1.95
2019-03-04T03:50:13.935Z,1.96
2019-03-04T03:51:18.320Z,1.97
2019-03-04T03:52:22.642Z,1.97
2019-03-04T03:53:26.867Z,1.98
2019-03-04T03:54:31.396Z,1.98
2019-03-04T03:55:35.824Z,2.00
2019-03-04T03:56:40.196Z,2.01
2019-03-04T03:57:44.593Z,2.02
2019-03-04T03:58:48.704Z,2.02
2019-03-04T03:59:52.756Z,2.03
2019-03-04T04:00:56.791Z,2.04
2019-03-04T04:02:00.846Z,2.02
2019-03-04T04:03:04.919Z,2.02
2019-03-04T04:04:08.923Z,2.03
2019-03-04T04:05:12.973Z,2.03
2019-03-04T04:06:16.983Z,2.04
2019-03-04T04:07:21.102Z,2.03
2019-03-04T04:08:25.142Z,2.05
2019-03-04T04:09:29.163Z,2.04
2019-03-04T04:10:33.205Z,2.05
2019-03-04T04:11:37.233Z,2.05
2019-03-04T04:12:41.362Z,2.06
2019-03-04T04:13:45.452Z,2.05
2019-03-04T04:14:49.490Z,2.06
2019-03-04T04:15:53.485Z,2.05
2019-03-04T04:16:57.465Z,2.03
2019-03-04T04:18:01.533Z,2.09
2019-03-04T04:19:05.551Z,2.07
2019-03-04T04:20:09.738Z,2.09
2019-03-04T04:21:13.785Z,2.08
2019-03-04T04:22:17.820Z,2.05
2019-03-04T04:23:21.882Z,2.05
2019-03-04T04:24:25.970Z,2.05
2019-03-04T04:25:30.069Z,2.06
2019-03-04T04:26:34.145Z,2.07
2019-03-04T04:27:38.210Z,2.09
2019-03-04T04:28:42.549Z,2.09
2019-03-04T04:29:46.582Z,2.09
2019-03-04T04:30:50.573Z,2.10
2019-03-04T04:31:54.594Z,2.09
2019-03-04T04:32:58.627Z,2.07
2019-03-04T04:34:02.776Z,2.09
2019-03-04T04:35:07.174Z,2.11
2019-03-04T04:36:11.186Z,2.10
2019-03-04T04:37:15.505Z,2.05
2019-03-04T04:38:19.805Z,2.05
2019-03-04T04:39:24.225Z,2.08
2019-03-04T04:40:28.619Z,2.08
2019-03-04T04:41:32.805Z,2.06
2019-03-04T04:42:36.860Z,2.08
2019-03-04T04:43:40.837Z,2.10
2019-03-04T04:44:44.903Z,2.10
2019-03-04T04:45:48.932Z,2.11
2019-03-04T04:46:54.665Z,2.11
2019-03-04T04:47:58.728Z,2.12
2019-03-04T04:49:02.738Z,2.13
2019-03-04T04:50:08.463Z,2.13
2019-03-04T04:51:12.488Z,2.14
2019-03-04T04:52:16.513Z,2.07
2019-03-04T04:53:20.576Z,2.12
2019-03-04T04:54:24.810Z,2.09
2019-03-04T04:55:29.197Z,2.12
2019-03-04T04:56:33.451Z,2.10
2019-03-04T04:57:37.746Z,2.08
2019-03-04T04:58:42.840Z,2.13
2019-03-04T04:59:47.214Z,2.13
2019-03-04T05:00:51.427Z,2.14
2019-03-04T05:01:55.828Z,2.14
2019-03-04T05:03:00.236Z,2.14
2019-03-04T05:04:04.712Z,2.15
2019-03-04T05:05:09.129Z,2.14
2019-03-04T05:06:13.524Z,2.14
2019-03-04T05:07:17.780Z,2.15
2019-03-04T05:08:22.169Z,2.15
2019-03-04T05:09:26.416Z,2.16
2019-03-04T05:10:30.763Z,2.16
2019-03-04T05:11:35.161Z,2.17
2019-03-04T05:12:39.386Z,2.17
2019-03-04T05:13:43.454Z,2.14
2019-03-04T05:14:47.684Z,2.18
2019-03-04T05:15:52.119Z,2.17
2019-03-04T05:16:56.392Z,2.17
2019-03-04T05:18:00.734Z,2.18
2019-03-04T05:19:04.785Z,2.17
2019-03-04T05:20:11.642Z,2.17
2019-03-04T05:21:15.654Z,2.18
2019-03-04T05:22:19.779Z,2.18
2019-03-04T05:23:23.829Z,2.17
2019-03-04T05:24:29.531Z,2.18
2019-03-04T05:25:31.909Z,2.17
2019-03-04T05:26:35.941Z,2.17
2019-03-04T05:27:40.096Z,2.18
2019-03-04T05:28:44.095Z,2.17
2019-03-04T05:29:48.274Z,2.17
2019-03-04T05:30:52.286Z,2.18
2019-03-04T05:31:56.316Z,2.17
2019-03-04T05:33:00.489Z,2.17
2019-03-04T05:34:04.660Z,2.17
2019-03-04T05:35:08.818Z,2.18
2019-03-04T05:36:12.902Z,2.17
2019-03-04T05:37:16.989Z,2.16
2019-03-04T05:38:21.042Z,2.16
2019-03-04T05:39:25.224Z,2.14
2019-03-04T05:40:29.262Z,2.14
2019-03-04T05:41:33.254Z,2.14
2019-03-04T05:42:37.275Z,2.15
2019-03-04T05:43:41.354Z,2.16
2019-03-04T05:44:45.334Z,2.15
2019-03-04T05:45:49.432Z,2.17
2019-03-04T05:46:53.447Z,2.14
2019-03-04T05:47:57.539Z,2.16
2019-03-04T05:49:01.714Z,2.17
2019-03-04T05:50:06.698Z,2.17
2019-03-04T05:51:10.679Z,2.17
2019-03-04T05:52:14.693Z,2.16
2019-03-04T05:53:18.715Z,2.18
2019-03-04T05:54:22.833Z,2.19
2019-03-04T05:55:26.897Z,2.18
2019-03-04T05:56:30.934Z,2.18
2019-03-04T05:57:35.319Z,2.12
2019-03-04T05:58:39.739Z,2.14
2019-03-04T05:59:44.100Z,2.17
2019-03-04T06:00:48.482Z,2.17
2019-03-04T06:02:01.381Z,2.20
2019-03-04T06:03:05.854Z,2.17
2019-03-04T06:04:11.637Z,2.21
2019-03-04T06:05:16.013Z,2.22
2019-03-04T06:06:25.460Z,2.24
2019-03-04T06:07:37.091Z,2.25
2019-03-04T06:08:41.365Z,2.23
2019-03-04T06:09:45.745Z,2.26
2019-03-04T06:10:50.335Z,2.24
2019-03-04T06:11:54.697Z,2.29
2019-03-04T06:12:59.058Z,2.31
2019-03-04T06:14:03.399Z,2.30
2019-03-04T06:15:10.629Z,2.32
2019-03-04T06:16:15.059Z,2.32
2019-03-04T06:17:19.395Z,2.34
2019-03-04T06:18:23.726Z,2.35
2019-03-04T06:19:27.968Z,2.36
2019-03-04T06:20:32.311Z,2.37
2019-03-04T06:21:36.682Z,2.37
2019-03-04T06:22:41.072Z,2.34
2019-03-04T06:23:45.379Z,2.35
2019-03-04T06:24:49.654Z,2.36
2019-03-04T06:25:53.994Z,2.36
2019-03-04T06:26:58.428Z,2.37
2019-03-04T06:28:02.842Z,2.40
2019-03-04T06:29:07.193Z,2.41
2019-03-04T06:30:14.683Z,2.33
2019-03-04T06:31:18.904Z,2.43
2019-03-04T06:32:23.459Z,2.43
2019-03-04T06:33:27.834Z,2.45
2019-03-04T06:34:32.138Z,2.47
2019-03-04T06:35:36.425Z,2.48
2019-03-04T06:36:40.741Z,2.46
2019-03-04T06:37:45.144Z,2.46
2019-03-04T06:38:49.586Z,2.42
2019-03-04T06:39:53.937Z,2.43
2019-03-04T06:40:58.269Z,2.46
2019-03-04T06:42:02.472Z,2.48
2019-03-04T06:43:06.846Z,2.49
2019-03-04T06:44:11.235Z,2.45
2019-03-04T06:45:15.564Z,2.49
2019-03-04T06:46:19.878Z,2.51
2019-03-04T06:47:24.188Z,2.53
2019-03-04T06:48:28.648Z,2.57
2019-03-04T06:49:32.868Z,2.57
2019-03-04T06:50:47.386Z,2.59
2019-03-04T06:51:52.223Z,2.61
2019-03-04T06:52:56.489Z,2.64
2019-03-04T06:55:14.059Z,2.65
2019-03-04T06:56:57.809Z,2.71
2019-03-04T06:58:02.190Z,2.71
2019-03-04T06:59:11.096Z,2.74
2019-03-04T07:00:29.412Z,2.77
2019-03-04T07:01:39.906Z,2.74
2019-03-04T07:02:44.255Z,2.82
2019-03-04T07:03:56.299Z,2.83
2019-03-04T07:05:13.828Z,2.76
2019-03-04T07:06:17.839Z,2.81
2019-03-04T07:07:21.877Z,2.83
2019-03-04T07:09:33.062Z,2.85
2019-03-04T07:10:37.165Z,2.87
2019-03-04T07:11:44.407Z,2.90
2019-03-04T07:12:48.476Z,2.90
2019-03-04T07:13:52.510Z,2.96
2019-03-04T07:14:56.549Z,2.98
2019-03-04T07:16:00.664Z,3.00
2019-03-04T07:17:04.781Z,2.94
2019-03-04T07:18:08.805Z,3.04
2019-03-04T07:19:17.735Z,3.01
2019-03-04T07:20:21.826Z,3.05
2019-03-04T07:21:26.147Z,3.07
2019-03-04T07:22:30.527Z,3.10
2019-03-04T07:23:34.861Z,3.10
2019-03-04T07:24:39.146Z,3.14
2019-03-04T07:25:43.475Z,3.16
2019-03-04T07:26:47.801Z,3.19
2019-03-04T07:27:52.206Z,3.22
2019-03-04T07:28:56.498Z,3.24
2019-03-04T07:30:00.803Z,3.27
2019-03-04T07:31:05.130Z,3.30
2019-03-04T07:32:09.518Z,3.32
2019-03-04T07:33:13.933Z,3.34
2019-03-04T07:34:18.454Z,3.34
2019-03-04T07:35:22.779Z,3.38
2019-03-04T07:36:27.169Z,3.41
2019-03-04T07:37:31.665Z,3.41
2019-03-04T07:38:44.770Z,3.44
2019-03-04T07:39:49.087Z,3.44
2019-03-04T07:40:53.533Z,3.47
2019-03-04T07:41:59.136Z,3.47
2019-03-04T07:43:03.524Z,3.45
2019-03-04T07:44:07.861Z,3.50
2019-03-04T07:45:12.533Z,3.51
2019-03-04T07:46:16.905Z,3.53
2019-03-04T07:47:21.342Z,3.55
2019-03-04T07:48:25.767Z,3.57
2019-03-04T07:49:30.123Z,3.56
2019-03-04T07:50:34.422Z,3.59
2019-03-04T07:51:38.843Z,3.61
2019-03-04T07:52:43.166Z,3.63
2019-03-04T07:53:47.509Z,3.61
2019-03-04T07:54:51.895Z,3.63
2019-03-04T07:55:56.268Z,3.67
2019-03-04T07:57:00.502Z,3.71
2019-03-04T07:58:04.994Z,3.74
2019-03-04T07:59:09.450Z,3.77
2019-03-04T08:00:13.917Z,3.80
2019-03-04T08:01:18.347Z,3.82
2019-03-04T08:02:22.747Z,3.85
2019-03-04T08:03:26.985Z,3.88
2019-03-04T08:04:31.410Z,3.91
2019-03-04T08:05:35.773Z,3.91
2019-03-04T08:06:40.185Z,3.98
2019-03-04T08:07:46.829Z,4.01
2019-03-04T08:09:05.919Z,4.05
2019-03-04T08:10:55.264Z,4.08
2019-03-04T08:13:07.269Z,4.13
2019-03-04T08:14:11.687Z,4.22
2019-03-04T08:15:16.062Z,4.24
2019-03-04T08:16:20.488Z,4.27
2019-03-04T08:17:24.878Z,4.30
2019-03-04T08:18:29.289Z,4.33
2019-03-04T08:19:33.675Z,4.36
2019-03-04T08:20:37.942Z,4.39
2019-03-04T08:21:42.525Z,4.41
2019-03-04T08:22:46.805Z,4.44
2019-03-04T08:23:51.184Z,4.45
2019-03-04T08:24:55.567Z,4.47
2019-03-04T08:25:59.713Z,4.50
2019-03-04T08:27:04.229Z,4.49
2019-03-04T08:28:09.941Z,4.46
2019-03-04T08:29:14.234Z,4.50
2019-03-04T08:30:20.482Z,4.53
2019-03-04T08:31:24.804Z,4.57
2019-03-04T08:32:29.220Z,4.61
2019-03-04T08:33:33.418Z,4.64
2019-03-04T08:34:37.698Z,4.64
2019-03-04T08:35:42.111Z,4.69
2019-03-04T08:36:46.426Z,4.72
2019-03-04T08:37:50.754Z,4.76
2019-03-04T08:38:55.043Z,4.74
2019-03-04T08:39:59.266Z,4.78
2019-03-04T08:41:03.608Z,4.80
2019-03-04T08:42:08.155Z,4.85
2019-03-04T08:43:13.537Z,4.87
2019-03-04T08:44:17.831Z,4.83
2019-03-04T08:45:22.083Z,4.94
2019-03-04T08:46:26.449Z,4.95
2019-03-04T08:47:30.783Z,4.99
2019-03-04T08:48:35.207Z,4.99
2019-03-04T08:49:39.561Z,5.02
2019-03-04T08:50:43.917Z,5.10
2019-03-04T08:51:48.373Z,5.14
2019-03-04T08:52:52.742Z,5.12
2019-03-04T08:53:57.097Z,5.18
2019-03-04T08:55:01.441Z,5.22
2019-03-04T08:56:05.790Z,5.24
2019-03-04T08:57:10.210Z,5.27
2019-03-04T08:58:14.468Z,5.29
2019-03-04T08:59:18.904Z,5.27
2019-03-04T09:00:25.676Z,5.35
2019-03-04T09:01:31.278Z,5.34
2019-03-04T09:02:34.491Z,5.34
2019-03-04T09:03:38.762Z,5.33
2019-03-04T09:04:43.063Z,5.36
2019-03-04T09:05:47.395Z,5.35
2019-03-04T09:06:51.611Z,5.33
2019-03-04T09:07:56.031Z,5.35
2019-03-04T09:09:00.384Z,5.36
2019-03-04T09:10:05.698Z,5.37
2019-03-04T09:11:16.387Z,5.37
2019-03-04T09:12:20.685Z,5.39
2019-03-04T09:13:24.900Z,5.36
2019-03-04T09:14:29.097Z,5.34
2019-03-04T09:15:33.401Z,5.34
2019-03-04T09:16:37.664Z,5.34
2019-03-04T09:17:42.174Z,5.32
2019-03-04T09:18:46.422Z,5.31
2019-03-04T09:19:50.759Z,5.29
2019-03-04T09:20:55.084Z,5.27
2019-03-04T09:21:59.498Z,5.26
2019-03-04T09:23:04.019Z,5.26
2019-03-04T09:24:08.415Z,5.26
2019-03-04T09:25:15.785Z,5.25
2019-03-04T09:26:20.133Z,5.24
2019-03-04T09:27:24.475Z,5.24
2019-03-04T09:28:28.709Z,5.22
2019-03-04T09:29:32.960Z,5.23
2019-03-04T09:30:37.343Z,5.23
2019-03-04T09:31:41.717Z,5.22
2019-03-04T09:32:46.265Z,5.21
2019-03-04T09:33:50.570Z,5.21
2019-03-04T09:34:55.016Z,5.21
2019-03-04T09:35:59.357Z,5.20
2019-03-04T09:37:03.810Z,5.22
2019-03-04T09:38:08.256Z,5.23
2019-03-04T09:39:13.931Z,5.25
2019-03-04T09:40:18.297Z,5.25
2019-03-04T09:41:22.794Z,5.29
2019-03-04T09:42:27.242Z,5.31
2019-03-04T09:43:31.521Z,5.35
2019-03-04T09:44:35.753Z,5.37
2019-03-04T09:45:40.145Z,5.42
2019-03-04T09:46:44.483Z,5.45
2019-03-04T09:47:48.801Z,5.49
2019-03-04T09:48:53.107Z,5.52
2019-03-04T09:49:57.475Z,5.56
2019-03-04T09:51:01.828Z,5.59
2019-03-04T09:52:06.159Z,5.63
2019-03-04T09:53:10.553Z,5.64
2019-03-04T09:54:14.643Z,5.66
2019-03-04T09:55:19.176Z,5.70
2019-03-04T09:56:23.500Z,5.70
2019-03-04T09:57:27.933Z,5.73
2019-03-04T09:58:32.243Z,5.73
2019-03-04T09:59:36.521Z,5.75
2019-03-04T10:00:45.229Z,5.76
2019-03-04T10:01:53.656Z,5.77
2019-03-04T10:02:59.640Z,5.72
2019-03-04T10:06:25.316Z,5.74
2019-03-04T10:07:36.916Z,5.87
2019-03-04T10:08:56.326Z,5.89
2019-03-04T10:10:11.031Z,5.94
2019-03-04T10:11:37.646Z,5.97
2019-03-04T10:14:20.154Z,6.00
2019-03-04T10:15:38.801Z,6.09
2019-03-04T10:18:56.971Z,6.12
2019-03-04T10:20:23.393Z,6.20
2019-03-04T10:21:38.227Z,6.22
2019-03-04T10:23:57.392Z,6.33
2019-03-04T10:25:20.404Z,6.44
2019-03-04T10:26:41.110Z,6.49
2019-03-04T10:28:31.308Z,6.52
2019-03-04T10:32:50.741Z,6.56
2019-03-04T10:34:10.698Z,6.53
2019-03-04T10:35:25.609Z,6.54
2019-03-04T10:38:47.268Z,6.58
2019-03-04T10:40:33.946Z,6.62
2019-03-04T10:41:56.627Z,6.68
2019-03-04T10:43:11.706Z,6.71
2019-03-04T10:44:37.492Z,6.74
2019-03-04T10:46:29.919Z,6.82
2019-03-04T10:47:34.298Z,6.95
2019-03-04T10:48:38.662Z,7.05
2019-03-04T10:49:42.959Z,7.16
2019-03-04T10:50:47.374Z,7.21
2019-03-04T10:51:51.789Z,7.23
2019-03-04T10:52:56.255Z,7.43
2019-03-04T10:54:00.610Z,7.49
2019-03-04T10:55:05.531Z,7.63
2019-03-04T10:56:10.039Z,7.73
2019-03-04T10:57:14.393Z,7.84
2019-03-04T10:58:18.724Z,7.94
2019-03-04T10:59:22.833Z,8.06
2019-03-04T11:00:27.181Z,8.15
2019-03-04T11:01:31.467Z,8.28
2019-03-04T11:02:35.846Z,8.24
2019-03-04T11:03:40.161Z,8.39
2019-03-04T11:04:44.453Z,8.50
2019-03-04T11:05:48.725Z,8.57
2019-03-04T11:06:54.814Z,8.62
2019-03-04T11:07:57.514Z,8.66
2019-03-04T11:09:01.916Z,8.58
2019-03-04T11:10:06.546Z,8.61
2019-03-04T11:11:10.935Z,8.65
2019-03-04T11:12:15.340Z,8.65
2019-03-04T11:13:19.543Z,8.59
2019-03-04T11:14:23.846Z,8.54
2019-03-04T11:15:28.301Z,8.50
2019-03-04T11:16:32.598Z,8.47
2019-03-04T11:17:37.035Z,8.40
2019-03-04T11:18:41.364Z,8.34
2019-03-04T11:19:45.715Z,8.34
2019-03-04T11:20:50.156Z,8.25
2019-03-04T11:21:54.737Z,8.08
2019-03-04T11:22:59.142Z,8.10
2019-03-04T11:24:03.546Z,8.07
2019-03-04T11:25:07.851Z,8.05
2019-03-04T11:26:12.158Z,7.88
2019-03-04T11:27:16.513Z,7.88
2019-03-04T11:28:20.870Z,7.73
2019-03-04T11:29:25.127Z,7.76
2019-03-04T11:30:30.301Z,7.65
2019-03-04T11:31:34.512Z,7.48
2019-03-04T11:32:38.900Z,7.29
2019-03-04T11:33:43.219Z,7.18
2019-03-04T11:34:47.574Z,7.07
2019-03-04T11:35:51.885Z,7.11
2019-03-04T11:36:56.293Z,7.15
2019-03-04T11:38:00.821Z,7.13
2019-03-04T11:39:15.178Z,7.09
2019-03-04T11:40:25.749Z,7.20
2019-03-04T11:41:30.199Z,7.10
2019-03-04T11:42:34.669Z,6.97
2019-03-04T11:43:39.017Z,7.03
2019-03-04T11:44:43.322Z,7.13
2019-03-04T11:45:47.613Z,6.96
2019-03-04T11:46:51.937Z,7.04
2019-03-04T11:47:56.250Z,7.09
2019-03-04T11:49:00.584Z,7.12
2019-03-04T11:50:05.723Z,7.14
2019-03-04T11:51:10.076Z,7.05
2019-03-04T11:52:14.526Z,7.05
2019-03-04T11:53:19.063Z,7.09
2019-03-04T11:54:23.321Z,7.13
2019-03-04T11:55:27.852Z,6.89
2019-03-04T11:56:32.275Z,6.77
2019-03-04T11:57:36.558Z,6.75
2019-03-04T11:58:40.953Z,6.76
2019-03-04T11:59:45.302Z,6.76
2019-03-04T12:00:54.976Z,6.76
2019-03-04T12:01:59.338Z,6.72
2019-03-04T12:03:03.740Z,6.75
2019-03-04T12:04:08.289Z,6.80
2019-03-04T12:05:12.806Z,6.84
2019-03-04T12:06:17.247Z,6.71
2019-03-04T12:07:21.694Z,6.57
2019-03-04T12:08:25.929Z,6.64
2019-03-04T12:09:30.405Z,6.68
2019-03-04T12:10:34.721Z,6.71
2019-03-04T12:11:39.100Z,6.72
2019-03-04T12:12:43.334Z,6.73
2019-03-04T12:13:47.638Z,6.72
2019-03-04T12:14:52.109Z,6.67
2019-03-04T12:15:56.416Z,6.72
2019-03-04T12:17:00.786Z,6.72
2019-03-04T12:18:05.353Z,6.75
2019-03-04T12:19:09.597Z,6.76
2019-03-04T12:20:14.180Z,6.79
2019-03-04T12:21:18.475Z,6.76
2019-03-04T12:22:22.795Z,6.54
2019-03-04T12:23:27.190Z,6.53
2019-03-04T12:24:31.508Z,6.62
2019-03-04T12:25:35.817Z,6.57
2019-03-04T12:26:40.163Z,6.48
2019-03-04T12:27:44.460Z,6.55
2019-03-04T12:28:49.011Z,6.56
2019-03-04T12:29:53.293Z,6.35
2019-03-04T12:30:57.772Z,6.43
2019-03-04T12:32:07.619Z,6.29
2019-03-04T12:33:12.016Z,6.32
2019-03-04T12:34:24.658Z,6.44
2019-03-04T12:35:24.291Z,6.55
2019-03-04T12:36:28.392Z,6.65
2019-03-04T12:37:32.562Z,6.68
2019-03-04T12:38:36.598Z,6.69
2019-03-04T12:39:40.577Z,6.70
2019-03-04T12:40:44.560Z,6.69
2019-03-04T12:41:49.759Z,6.67
2019-03-04T12:42:52.727Z,6.72
2019-03-04T12:43:56.759Z,6.73
2019-03-04T12:45:00.792Z,6.77
2019-03-04T12:46:04.923Z,6.78
2019-03-04T12:47:09.018Z,6.78
2019-03-04T12:48:13.040Z,6.80
2019-03-04T12:49:17.105Z,6.82
2019-03-04T12:50:23.353Z,6.85
2019-03-04T12:51:27.422Z,6.79
2019-03-04T12:52:31.541Z,6.75
2019-03-04T12:53:37.485Z,6.64
2019-03-04T12:54:39.714Z,6.60
2019-03-04T12:55:43.750Z,6.33
2019-03-04T12:56:47.772Z,6.24
2019-03-04T12:57:51.913Z,6.18
2019-03-04T12:58:55.962Z,6.05
2019-03-04T12:59:59.947Z,6.07
2019-03-04T13:01:04.097Z,5.97
2019-03-04T13:02:08.348Z,5.68
2019-03-04T13:03:20.887Z,5.66
2019-03-04T13:04:24.994Z,5.60
2019-03-04T13:05:29.215Z,5.63
2019-03-04T13:06:33.277Z,5.49
2019-03-04T13:07:37.394Z,5.34
2019-03-04T13:08:41.654Z,5.37
2019-03-04T13:09:45.731Z,5.33
2019-03-04T13:10:49.860Z,5.25
2019-03-04T13:11:54.197Z,5.46
2019-03-04T13:12:58.586Z,5.52
2019-03-04T13:14:02.859Z,5.70
2019-03-04T13:15:09.602Z,5.76
2019-03-04T13:16:13.878Z,5.81
2019-03-04T13:17:18.148Z,5.65
2019-03-04T13:18:22.514Z,5.45
2019-03-04T13:19:26.766Z,5.48
2019-03-04T13:20:31.146Z,5.42
2019-03-04T13:21:35.430Z,5.39
2019-03-04T13:22:39.760Z,5.18
2019-03-04T13:23:44.156Z,5.26
2019-03-04T13:24:48.529Z,5.19
2019-03-04T13:25:52.870Z,5.27
2019-03-04T13:26:57.169Z,5.33
2019-03-04T13:28:08.229Z,5.21
2019-03-04T13:29:05.933Z,5.15
2019-03-04T13:30:13.437Z,4.96
2019-03-04T13:31:17.800Z,4.84
2019-03-04T13:32:22.133Z,4.82
2019-03-04T13:33:26.436Z,4.74
2019-03-04T13:34:30.782Z,4.75
2019-03-04T13:35:35.184Z,4.79
2019-03-04T13:36:39.529Z,4.86
2019-03-04T13:37:43.860Z,4.66
2019-03-04T13:38:48.238Z,4.62
2019-03-04T13:39:52.784Z,4.70
2019-03-04T13:40:56.995Z,4.56
2019-03-04T13:42:01.296Z,4.53
2019-03-04T13:43:05.593Z,4.37
2019-03-04T13:44:09.909Z,4.36
2019-03-04T13:45:14.643Z,4.29
2019-03-04T13:46:19.036Z,4.10
2019-03-04T13:47:23.583Z,3.89
2019-03-04T13:48:27.991Z,4.04
2019-03-04T13:49:32.300Z,3.95
2019-03-04T13:50:36.888Z,3.89
2019-03-04T13:51:41.228Z,3.81
2019-03-04T13:52:45.589Z,3.86
2019-03-04T13:53:49.908Z,3.79
2019-03-04T13:54:54.205Z,3.68
2019-03-04T13:55:58.548Z,3.77
2019-03-04T13:57:02.963Z,3.81
2019-03-04T13:58:07.344Z,3.77
2019-03-04T13:59:11.391Z,3.59
2019-03-04T14:00:17.729Z,3.61
2019-03-04T14:01:21.836Z,3.62
2019-03-04T14:02:26.356Z,3.52
2019-03-04T14:03:30.738Z,3.48
2019-03-04T14:04:34.881Z,3.54
2019-03-04T14:05:39.245Z,3.58
2019-03-04T14:06:43.478Z,3.61
2019-03-04T14:07:47.963Z,3.57
2019-03-04T14:08:52.311Z,3.58
2019-03-04T14:09:56.682Z,3.61
2019-03-04T14:11:00.887Z,3.64
2019-03-04T14:12:05.195Z,3.60
2019-03-04T14:13:09.809Z,3.56
2019-03-04T14:14:14.386Z,3.46
2019-03-04T14:15:22.536Z,3.36
2019-03-04T14:16:26.943Z,3.19
2019-03-04T14:17:31.411Z,3.14
2019-03-04T14:18:35.809Z,3.09
2019-03-04T14:19:40.192Z,3.15
2019-03-04T14:20:44.561Z,3.18
2019-03-04T14:21:48.942Z,3.16
2019-03-04T14:22:57.556Z,3.06
2019-03-04T14:23:57.790Z,3.09
2019-03-04T14:25:02.112Z,3.20
2019-03-04T14:26:06.590Z,3.25
2019-03-04T14:27:10.707Z,3.19
2019-03-04T14:28:15.053Z,3.16
2019-03-04T14:29:19.549Z,3.04
2019-03-04T14:30:23.854Z,3.04
2019-03-04T14:31:28.281Z,3.00
2019-03-04T14:32:32.760Z,2.97
2019-03-04T14:33:37.114Z,3.01
2019-03-04T14:34:41.461Z,2.89
2019-03-04T14:35:45.862Z,2.74
2019-03-04T14:36:49.938Z,2.79
2019-03-04T14:37:54.327Z,2.77
2019-03-04T14:38:58.581Z,2.79
2019-03-04T14:40:03.030Z,2.82
2019-03-04T14:41:07.355Z,2.92
2019-03-04T14:42:11.674Z,2.96
2019-03-04T14:43:15.995Z,2.99